Phoenix, Arizona
Traffic Map
Current Weather Conditions
Phoenix, Arizona
Few Clouds
Few Clouds
22°
Feels Like: 22°
Wind Chill: 22° Ceiling: Unl
Heat Index: 22° Visibility: 10mi
Dew Point: -8° Wind: 8mph
Humidity: 13% Direction: 300° (WNW)
Pressure: 29.77in Gusts: 0mph
Raw Report DataKPHX 231351Z 30007KT 10SM FEW250 22/M08 A2977 RMK AO2 SLP066 T02171083
Traffic Incident Summary
Active as of:
Severity:
Category:
InformationThere was an issue retrieving the traffic information for this location. Please try a different location or try again shortly.
Advertisements
At Last! Intellicast now available for iPhone and Android